Ana Sayfa
METAR-TAF:

METAR-TAF

Havaalanları :

Güvercinlik Havalimanı

Ankara Güvercinlik, Türkiye

Enlem: 39-56N, Boylam: 032-45E, yükseklik: 819 m

METAR: eksik

Saat: 15:01 (12:01 UTC)

Tahmin

Rapor saat 10:40 UTC de 1 saat ve 21 dakika önce yapıldı.
Ayın 12'si saat 12 UTC'den ayın 12'si saat 21 UTC'ye kadar geçerli Tahmin
Rüzgar değişken yönden 2 kt
Görüş mesafesi: 6000 m
3000 ft yükseklikte parçalı çok bulutlu
8000 ft yükseklikte parçalı çok bulutlu
hafif yağmur

TAF: LTAB 121040Z 1212/1221 VRB02KT 6000 -RA BKN030 BKN080

4.000'den fazla havaalanı için hava durumu gözlemleri ve tahminleri (METAR ve TAF raporları).

Kullanılabilir istasyonlar harita üzerinde sarı ve kırmızı noktalarla gösterilir.

İstasyonun adını görmek için fareyi noktanın üzerinde gezdirin.

Sonrasında hava gözlem ve tahminlerini görmek için tıklayın.

Haritayı değiştirmek için: yaklaştırmak için siyah artı işaretli yeşil düğmeye ve uzaklaştırmak için de eksi işaretli düğmeye hızla tıklayın; bitişik haritalar için yeşil okları kullanın.


METAR-TAF: